Time;durP1;ratioP1;P1;durP2;ratioP2;P2;SDS_P1;SDS_P2;PMS_P1;PMS_P2;Temp;Humidity;BMP_temperature;BMP_pressure;BME280_temperature;BME280_humidity;BME280_pressure;Samples;Min_cycle;Max_cycle;Signal;HPM_P1;HPM_P2
2023/08/20 00:00:46;;;;;;;;;;;;;;;17.94;50.71;96035.38;4989500;28;20461;-77
2023/08/20 00:03:12;;;;;;;;;;;;;;;17.98;50.67;96036.59;4993770;28;19957;-77
2023/08/20 00:05:37;;;;;;;;;;;;;;;18.00;50.63;96037.22;4991723;28;20019;-76
2023/08/20 00:08:03;;;;;;;;;;;;;;;17.99;50.50;96040.13;4997453;28;19975;-76
2023/08/20 00:10:28;;;;;;;;;;;;;;;17.94;50.57;96042.66;4994685;28;20488;-76
2023/08/20 00:12:54;;;;;;;;;;;;;;;17.87;50.60;96048.03;4999544;28;19956;-76
2023/08/20 00:15:19;;;;;;;;;;;;;;;17.89;51.22;96045.97;4993717;28;19968;-77
2023/08/20 00:17:45;;;;;;;;;;;;;;;17.89;50.47;96056.75;4999552;28;19961;-77
2023/08/20 00:20:12;;;;;;;;;;;;;;;17.87;50.72;96064.19;4993743;28;20192;-77
2023/08/20 00:22:42;;;;;;;;;;;;;;;17.71;51.26;96062.81;5003343;28;20477;-77
2023/08/20 00:25:07;;;;;;;;;;;;;;;17.62;52.32;96054.13;5002662;28;19925;-76
2023/08/20 00:27:33;;;;;;;;;;;;;;;17.74;51.86;96060.50;4999219;28;19922;-64
2023/08/20 00:29:58;;;;;;;;;;;;;;;17.83;51.40;96062.94;4978749;28;20454;-64
2023/08/20 00:32:23;;;;;;;;;;;;;;;17.88;51.25;96061.28;4993235;28;20389;-64
2023/08/20 00:34:48;;;;;;;;;;;;;;;17.95;51.14;96063.16;4986142;28;20088;-64
2023/08/20 00:37:14;;;;;;;;;;;;;;;17.94;50.86;96056.91;4979467;28;20449;-66
2023/08/20 00:39:40;;;;;;;;;;;;;;;17.84;50.82;96056.53;4989366;28;20308;-64
2023/08/20 00:42:05;;;;;;;;;;;;;;;17.88;51.05;96055.09;4998624;28;19972;-67
2023/08/20 00:44:31;;;;;;;;;;;;;;;17.90;51.46;96061.09;4991951;28;19948;-65
2023/08/20 00:46:56;;;;;;;;;;;;;;;17.97;51.14;96066.44;4991764;28;19921;-66
2023/08/20 00:49:21;;;;;;;;;;;;;;;17.95;50.58;96063.94;4978554;28;20391;-64
2023/08/20 00:51:46;;;;;;;;;;;;;;;17.93;50.58;96063.34;4974018;28;19922;-64
2023/08/20 00:54:12;;;;;;;;;;;;;;;17.94;50.91;96075.78;4976870;28;19918;-64
2023/08/20 00:56:37;;;;;;;;;;;;;;;17.94;50.75;96073.09;4986418;28;20361;-65
2023/08/20 00:59:03;;;;;;;;;;;;;;;17.93;50.17;96074.13;4986334;28;19929;-65
2023/08/20 01:01:29;;;;;;;;;;;;;;;17.92;50.76;96073.28;4977687;28;19928;-64
2023/08/20 01:03:54;;;;;;;;;;;;;;;17.94;50.46;96074.97;4976885;28;20251;-65
2023/08/20 01:06:30;;;;;;;;;;;;;;;17.95;50.68;96072.03;4976871;28;19925;-64
2023/08/20 01:08:58;;;;;;;;;;;;;;;17.92;50.43;96067.91;4998047;28;20395;-65
2023/08/20 01:11:29;;;;;;;;;;;;;;;17.91;50.45;96068.13;4983667;28;19957;-65
2023/08/20 01:13:55;;;;;;;;;;;;;;;17.91;50.70;96073.50;4977828;28;19968;-65
2023/08/20 01:16:20;;;;;;;;;;;;;;;17.86;51.09;96067.94;4994729;28;19961;-65
2023/08/20 01:18:46;;;;;;;;;;;;;;;17.82;51.26;96067.53;4992954;28;19930;-64
2023/08/20 01:21:30;;;;;;;;;;;;;;;17.84;50.30;96070.81;4996211;28;20571;-65
2023/08/20 01:23:55;;;;;;;;;;;;;;;17.83;50.04;96071.88;4998197;28;20364;-65
2023/08/20 01:26:22;;;;;;;;;;;;;;;17.76;51.17;96065.69;4998884;28;19918;-64
2023/08/20 01:28:47;;;;;;;;;;;;;;;17.76;50.85;96065.69;5004662;28;20266;-64
2023/08/20 01:31:12;;;;;;;;;;;;;;;17.76;51.46;96071.06;5007382;28;20552;-64
2023/08/20 01:33:38;;;;;;;;;;;;;;;17.76;51.55;96073.75;5013965;28;20358;-64
2023/08/20 01:36:09;;;;;;;;;;;;;;;17.77;51.28;96072.69;5002456;28;19922;-65
2023/08/20 01:38:34;;;;;;;;;;;;;;;17.81;50.78;96079.31;5005459;28;19925;-64
2023/08/20 01:40:59;;;;;;;;;;;;;;;17.82;49.98;96069.38;4996941;28;19921;-64
2023/08/20 01:43:25;;;;;;;;;;;;;;;17.83;49.98;96073.72;5012907;28;19929;-64
2023/08/20 01:45:50;;;;;;;;;;;;;;;17.82;50.35;96074.75;4992974;28;19992;-64
2023/08/20 01:48:15;;;;;;;;;;;;;;;17.79;49.91;96073.34;5007569;28;19925;-64
2023/08/20 01:50:41;;;;;;;;;;;;;;;17.76;50.43;96069.19;5004702;28;19931;-65
2023/08/20 01:53:06;;;;;;;;;;;;;;;17.78;50.51;96077.06;5007040;28;19979;-65
2023/08/20 01:55:31;;;;;;;;;;;;;;;17.78;51.49;96074.38;4983413;28;19957;-65
2023/08/20 01:57:56;;;;;;;;;;;;;;;17.74;50.91;96065.06;4982564;28;20680;-64
2023/08/20 02:00:21;;;;;;;;;;;;;;;17.75;50.42;96067.53;4974361;28;20071;-65
2023/08/20 02:02:47;;;;;;;;;;;;;;;17.75;50.69;96064.84;4977858;28;19965;-64
2023/08/20 02:05:12;;;;;;;;;;;;;;;17.77;50.95;96067.31;4974043;28;20219;-64
2023/08/20 02:07:37;;;;;;;;;;;;;;;17.76;50.79;96062.97;4972940;28;19976;-64
2023/08/20 02:10:03;;;;;;;;;;;;;;;17.71;50.27;96060.09;4976886;28;19918;-64
2023/08/20 02:12:28;;;;;;;;;;;;;;;17.69;50.36;96059.47;4995987;28;19979;-64
2023/08/20 02:14:53;;;;;;;;;;;;;;;17.69;50.73;96062.19;5000197;28;19944;-65
2023/08/20 02:17:18;;;;;;;;;;;;;;;17.69;51.31;96054.09;5004015;28;19933;-64
2023/08/20 02:19:44;;;;;;;;;;;;;;;17.66;50.24;96058.03;5008354;28;19964;-65
2023/08/20 02:22:09;;;;;;;;;;;;;;;17.64;50.56;96049.38;5001460;28;20390;-65
2023/08/20 02:24:34;;;;;;;;;;;;;;;17.63;51.01;96045.00;5012734;28;20363;-64
2023/08/20 02:26:59;;;;;;;;;;;;;;;17.64;50.46;96044.00;4983064;28;19988;-64
2023/08/20 02:29:24;;;;;;;;;;;;;;;17.58;50.28;96045.66;4977216;28;19961;-65
2023/08/20 02:31:50;;;;;;;;;;;;;;;17.54;50.34;96044.41;4985914;28;19977;-65
2023/08/20 02:34:15;;;;;;;;;;;;;;;17.49;51.33;96042.38;4994904;28;19921;-64
2023/08/20 02:36:40;;;;;;;;;;;;;;;17.45;50.91;96025.00;4993032;28;19948;-64
2023/08/20 02:39:07;;;;;;;;;;;;;;;17.45;51.13;96027.69;4996747;28;19971;-64
2023/08/20 02:41:34;;;;;;;;;;;;;;;17.40;51.49;96027.47;4993171;28;20234;-65
2023/08/20 02:43:59;;;;;;;;;;;;;;;17.36;50.67;96026.25;4996197;28;19922;-65
2023/08/20 02:46:24;;;;;;;;;;;;;;;17.32;50.63;96022.34;4991032;28;20003;-65
2023/08/20 02:48:49;;;;;;;;;;;;;;;17.26;50.61;96021.31;4977024;28;20025;-64
2023/08/20 02:51:15;;;;;;;;;;;;;;;17.23;50.85;96033.31;4981326;28;19926;-65
2023/08/20 02:53:40;;;;;;;;;;;;;;;17.18;51.52;96035.84;4996381;28;19929;-65
2023/08/20 02:56:05;;;;;;;;;;;;;;;17.12;52.24;96042.88;4994205;28;20011;-64
2023/08/20 02:58:30;;;;;;;;;;;;;;;17.17;50.99;96038.72;4997164;28;20107;-65
2023/08/20 03:00:57;;;;;;;;;;;;;;;17.15;51.52;96039.78;4991512;28;20101;-64
2023/08/20 03:03:22;;;;;;;;;;;;;;;17.20;51.58;96041.81;4977379;28;20303;-64
2023/08/20 03:05:47;;;;;;;;;;;;;;;17.21;51.54;96039.97;4974081;28;19930;-64
2023/08/20 03:08:13;;;;;;;;;;;;;;;17.23;52.15;96044.09;4986800;28;20382;-65
2023/08/20 03:10:38;;;;;;;;;;;;;;;17.26;51.68;96040.97;4990752;28;20342;-64
2023/08/20 03:13:03;;;;;;;;;;;;;;;17.26;50.88;96049.06;4995241;28;19921;-65
2023/08/20 03:15:29;;;;;;;;;;;;;;;17.30;51.98;96044.06;4999343;28;19932;-65
2023/08/20 03:17:54;;;;;;;;;;;;;;;17.34;51.32;96049.88;5002006;28;19924;-65
2023/08/20 03:20:19;;;;;;;;;;;;;;;17.35;51.20;96049.66;4978039;28;20033;-64
2023/08/20 03:22:44;;;;;;;;;;;;;;;17.36;50.99;96058.53;4975973;28;20424;-65
2023/08/20 03:25:10;;;;;;;;;;;;;;;17.38;50.80;96056.47;4974339;28;19953;-65
2023/08/20 03:27:35;;;;;;;;;;;;;;;17.40;50.64;96057.09;4973625;28;19933;-66
2023/08/20 03:30:01;;;;;;;;;;;;;;;17.44;50.97;96055.63;4976727;28;20553;-64
2023/08/20 03:32:26;;;;;;;;;;;;;;;17.48;50.45;96056.03;4992567;28;20808;-64
2023/08/20 03:34:53;;;;;;;;;;;;;;;17.49;50.72;96055.00;4995721;28;20278;-65
2023/08/20 03:37:18;;;;;;;;;;;;;;;17.53;50.26;96058.91;4994111;28;20029;-65
2023/08/20 03:39:43;;;;;;;;;;;;;;;17.55;50.55;96059.53;4995450;28;19977;-65
2023/08/20 03:42:08;;;;;;;;;;;;;;;17.60;50.47;96061.56;4996895;28;19968;-65
2023/08/20 03:44:34;;;;;;;;;;;;;;;17.62;50.70;96059.50;5002200;28;19975;-66
2023/08/20 03:46:59;;;;;;;;;;;;;;;17.60;50.16;96062.41;5007282;28;19960;-65
2023/08/20 03:49:24;;;;;;;;;;;;;;;17.61;50.16;96061.38;5010281;28;20280;-64
2023/08/20 03:51:49;;;;;;;;;;;;;;;17.60;50.11;96056.19;4979801;28;19933;-65
2023/08/20 03:54:15;;;;;;;;;;;;;;;17.60;50.50;96061.56;4982463;28;19953;-65
2023/08/20 03:56:40;;;;;;;;;;;;;;;17.63;50.64;96069.22;4977258;28;20492;-64
2023/08/20 03:59:05;;;;;;;;;;;;;;;17.66;49.97;96063.44;4989971;28;20291;-65
2023/08/20 04:01:31;;;;;;;;;;;;;;;17.64;49.54;96065.53;5003177;28;19968;-65
2023/08/20 04:03:56;;;;;;;;;;;;;;;17.65;50.22;96069.88;5010169;28;19929;-64
2023/08/20 04:06:21;;;;;;;;;;;;;;;17.65;50.24;96081.44;5001030;28;20387;-64
2023/08/20 04:08:46;;;;;;;;;;;;;;;17.61;50.15;96076.72;5001997;28;19967;-64
2023/08/20 04:11:12;;;;;;;;;;;;;;;17.57;50.62;96072.78;5002665;28;20224;-67
2023/08/20 04:13:37;;;;;;;;;;;;;;;17.53;50.89;96075.91;5017695;28;20453;-65
2023/08/20 04:16:02;;;;;;;;;;;;;;;17.51;50.59;96080.66;5008995;28;19925;-65
2023/08/20 04:18:27;;;;;;;;;;;;;;;17.49;50.75;96082.75;5006320;28;19925;-65
2023/08/20 04:20:53;;;;;;;;;;;;;;;17.46;50.85;96077.78;5015565;28;19933;-65
2023/08/20 04:23:18;;;;;;;;;;;;;;;17.39;50.21;96082.34;4996261;28;20020;-65
2023/08/20 04:25:44;;;;;;;;;;;;;;;17.36;50.66;96085.44;4981545;28;19918;-66
2023/08/20 04:28:10;;;;;;;;;;;;;;;17.38;50.70;96086.09;4979422;28;19921;-65
2023/08/20 04:30:35;;;;;;;;;;;;;;;17.39;50.76;96102.03;4985501;28;19978;-64
2023/08/20 04:33:01;;;;;;;;;;;;;;;17.40;51.21;96095.59;4999884;28;20327;-63
2023/08/20 04:35:26;;;;;;;;;;;;;;;17.43;51.24;96097.03;5001817;28;19968;-64
2023/08/20 04:37:51;;;;;;;;;;;;;;;17.47;50.89;96094.75;5001472;28;20442;-64
2023/08/20 04:40:16;;;;;;;;;;;;;;;17.50;50.97;96099.69;5001404;28;19929;-64
2023/08/20 04:42:42;;;;;;;;;;;;;;;17.52;50.47;96097.63;4998410;28;19929;-63
2023/08/20 04:45:07;;;;;;;;;;;;;;;17.53;50.90;96091.22;5006704;28;19936;-64
2023/08/20 04:47:33;;;;;;;;;;;;;;;17.50;50.87;96087.09;5000960;28;19925;-63
2023/08/20 04:49:58;;;;;;;;;;;;;;;17.52;50.27;96094.94;4999014;28;19932;-62
2023/08/20 04:52:23;;;;;;;;;;;;;;;17.46;50.41;96101.16;4997366;28;19991;-63
2023/08/20 04:54:49;;;;;;;;;;;;;;;17.51;50.62;96101.38;4998095;28;20589;-63
2023/08/20 04:57:14;;;;;;;;;;;;;;;17.59;50.77;96103.00;4996982;28;20398;-64
2023/08/20 04:59:39;;;;;;;;;;;;;;;17.58;50.83;96121.03;4997101;28;19956;-64
2023/08/20 05:02:04;;;;;;;;;;;;;;;17.63;49.87;96115.00;4998090;28;20174;-64
2023/08/20 05:04:29;;;;;;;;;;;;;;;17.75;50.07;96120.56;5007930;28;19929;-64
2023/08/20 05:06:55;;;;;;;;;;;;;;;17.83;49.89;96123.03;4992308;28;19961;-63
2023/08/20 05:09:20;;;;;;;;;;;;;;;17.92;49.95;96129.03;5006401;28;20578;-63
2023/08/20 05:11:46;;;;;;;;;;;;;;;17.99;49.80;96121.75;5008357;28;20402;-63
2023/08/20 05:14:11;;;;;;;;;;;;;;;18.09;49.39;96120.47;5015600;28;20237;-64
2023/08/20 05:16:36;;;;;;;;;;;;;;;18.20;49.45;96133.28;4995033;28;19953;-63
2023/08/20 05:19:01;;;;;;;;;;;;;;;18.30;49.13;96132.81;4997582;28;20017;-62
2023/08/20 05:21:27;;;;;;;;;;;;;;;18.39;48.77;96133.41;4994579;28;20452;-64
2023/08/20 05:23:52;;;;;;;;;;;;;;;18.47;48.27;96138.53;5009889;28;19921;-64
2023/08/20 05:26:17;;;;;;;;;;;;;;;18.56;48.53;96133.72;5007695;28;20538;-64
2023/08/20 05:28:43;;;;;;;;;;;;;;;18.67;48.45;96134.91;5013346;28;20389;-63
2023/08/20 05:31:08;;;;;;;;;;;;;;;18.75;48.36;96129.25;5010440;28;20560;-63
2023/08/20 05:33:33;;;;;;;;;;;;;;;18.89;48.08;96139.94;5001618;28;19927;-63
2023/08/20 05:35:59;;;;;;;;;;;;;;;18.92;47.78;96126.84;4993418;28;19932;-64
2023/08/20 05:38:24;;;;;;;;;;;;;;;18.98;47.80;96127.00;4979996;28;20951;-64
2023/08/20 05:40:49;;;;;;;;;;;;;;;19.08;47.85;96127.34;4996638;28;19949;-64
2023/08/20 05:43:15;;;;;;;;;;;;;;;19.15;47.71;96127.28;5000059;28;20392;-65
2023/08/20 05:45:40;;;;;;;;;;;;;;;19.18;48.03;96133.06;5006122;28;19921;-64
2023/08/20 05:48:05;;;;;;;;;;;;;;;19.27;47.37;96133.63;4979535;28;19926;-64
2023/08/20 05:50:31;;;;;;;;;;;;;;;19.36;47.50;96138.75;4978434;28;20584;-64
2023/08/20 05:52:56;;;;;;;;;;;;;;;19.42;46.96;96137.88;4971466;28;19926;-65
2023/08/20 05:55:21;;;;;;;;;;;;;;;19.43;46.79;96140.34;4987690;28;20476;-64
2023/08/20 05:57:46;;;;;;;;;;;;;;;19.31;47.26;96137.53;4992864;28;20412;-64
2023/08/20 06:00:11;;;;;;;;;;;;;;;19.06;47.11;96149.16;5011834;28;19961;-65
2023/08/20 06:02:37;;;;;;;;;;;;;;;19.19;47.28;96155.47;5003097;28;20130;-66
2023/08/20 06:05:04;;;;;;;;;;;;;;;19.41;47.20;96144.34;5002231;28;19931;-64
2023/08/20 06:07:29;;;;;;;;;;;;;;;19.42;47.28;96145.97;4991953;28;19956;-64
2023/08/20 06:09:55;;;;;;;;;;;;;;;19.30;47.30;96140.47;4995790;28;19956;-66
2023/08/20 06:12:20;;;;;;;;;;;;;;;19.57;46.70;96148.31;5010477;28;19960;-66
2023/08/20 06:14:45;;;;;;;;;;;;;;;19.74;46.62;96145.84;5014109;28;19996;-64
2023/08/20 06:17:10;;;;;;;;;;;;;;;19.88;46.85;96145.72;5005535;28;20426;-64
2023/08/20 06:19:36;;;;;;;;;;;;;;;20.15;46.27;96157.06;4986169;28;19926;-66
2023/08/20 06:22:01;;;;;;;;;;;;;;;20.33;46.02;96150.81;4978364;28;19925;-65
2023/08/20 06:24:26;;;;;;;;;;;;;;;20.49;46.25;96160.16;4995805;28;19921;-65
2023/08/20 06:26:51;;;;;;;;;;;;;;;20.66;44.83;96156.03;4995120;28;19926;-64
2023/08/20 06:29:17;;;;;;;;;;;;;;;20.75;45.21;96160.06;4996819;28;19975;-65
2023/08/20 06:31:42;;;;;;;;;;;;;;;20.81;45.02;96158.31;5000496;28;20461;-65
2023/08/20 06:34:08;;;;;;;;;;;;;;;20.86;45.59;96148.44;5000007;28;19983;-65
2023/08/20 06:36:33;;;;;;;;;;;;;;;21.04;44.74;96149.41;4985075;28;19949;-65
2023/08/20 06:38:58;;;;;;;;;;;;;;;21.33;44.60;96144.19;4978760;28;20477;-66
2023/08/20 06:41:23;;;;;;;;;;;;;;;21.60;44.53;96146.44;4995253;28;19965;-64
2023/08/20 06:43:49;;;;;;;;;;;;;;;21.81;44.61;96146.03;4996550;28;19932;-65
2023/08/20 06:46:14;;;;;;;;;;;;;;;22.04;44.77;96157.94;5004110;28;19932;-66
2023/08/20 06:48:39;;;;;;;;;;;;;;;22.06;45.42;96159.34;5002810;28;20378;-64
2023/08/20 06:51:09;;;;;;;;;;;;;;;22.16;44.80;96156.00;4991701;28;19922;-65
2023/08/20 06:53:34;;;;;;;;;;;;;;;22.21;44.15;96152.59;4971987;28;20436;-64
2023/08/20 06:55:59;;;;;;;;;;;;;;;22.16;44.75;96150.59;4972749;28;19930;-64
2023/08/20 06:58:24;;;;;;;;;;;;;;;22.36;44.46;96152.06;4978633;28;20145;-64
2023/08/20 07:00:49;;;;;;;;;;;;;;;22.32;45.34;96150.88;4995327;28;19972;-63
2023/08/20 07:03:15;;;;;;;;;;;;;;;22.37;45.22;96156.44;4995175;28;19957;-63
2023/08/20 07:05:40;;;;;;;;;;;;;;;22.67;44.54;96155.38;4995214;28;19934;-64
2023/08/20 07:08:05;;;;;;;;;;;;;;;22.88;44.30;96167.44;4996385;28;20101;-64
2023/08/20 07:10:31;;;;;;;;;;;;;;;23.03;43.87;96157.91;4997956;28;20388;-63
2023/08/20 07:12:56;;;;;;;;;;;;;;;23.28;44.07;96152.09;4998920;28;19917;-64
2023/08/20 07:15:21;;;;;;;;;;;;;;;23.69;42.45;96143.72;5007156;28;19960;-64
2023/08/20 07:17:47;;;;;;;;;;;;;;;24.06;42.02;96147.78;4993312;28;19930;-64
2023/08/20 07:20:12;;;;;;;;;;;;;;;24.28;41.65;96149.69;4981524;28;19930;-64
2023/08/20 07:22:37;;;;;;;;;;;;;;;24.48;41.14;96150.19;4974625;28;19932;-64
2023/08/20 07:25:03;;;;;;;;;;;;;;;24.65;40.93;96142.78;4976377;28;19921;-64
2023/08/20 07:27:28;;;;;;;;;;;;;;;24.76;42.01;96137.41;4984158;28;19925;-64
2023/08/20 07:29:53;;;;;;;;;;;;;;;24.66;40.29;96136.25;4996153;28;19921;-64
2023/08/20 07:32:18;;;;;;;;;;;;;;;24.69;39.99;96143.91;4992983;28;19937;-64
2023/08/20 07:34:44;;;;;;;;;;;;;;;24.65;39.85;96144.66;4995415;28;19929;-64
2023/08/20 07:37:09;;;;;;;;;;;;;;;24.69;39.93;96143.91;4994697;28;20083;-64
2023/08/20 07:39:34;;;;;;;;;;;;;;;24.74;39.72;96153.19;4994880;28;19932;-64
2023/08/20 07:42:00;;;;;;;;;;;;;;;24.97;39.84;96152.06;4995275;28;20133;-63
2023/08/20 07:44:25;;;;;;;;;;;;;;;25.03;38.76;96152.94;4995141;28;20266;-63
2023/08/20 07:46:50;;;;;;;;;;;;;;;24.75;39.47;96166.53;4995692;28;19972;-63
2023/08/20 07:49:16;;;;;;;;;;;;;;;24.41;39.30;96164.81;4996043;28;19925;-64
2023/08/20 07:51:41;;;;;;;;;;;;;;;24.55;38.28;96170.69;4993654;28;20358;-63
2023/08/20 07:54:06;;;;;;;;;;;;;;;24.81;37.23;96170.16;4994390;28;19926;-64
2023/08/20 07:56:31;;;;;;;;;;;;;;;24.95;38.01;96173.28;4994368;28;20242;-64
2023/08/20 07:58:57;;;;;;;;;;;;;;;25.14;37.39;96173.72;4985218;28;19926;-64
2023/08/20 08:01:22;;;;;;;;;;;;;;;25.30;37.17;96169.22;4975560;28;20243;-64
2023/08/20 08:03:47;;;;;;;;;;;;;;;25.37;37.48;96165.44;4970044;28;19934;-64
2023/08/20 08:06:12;;;;;;;;;;;;;;;25.49;37.71;96163.38;4975575;28;20383;-64
2023/08/20 08:08:38;;;;;;;;;;;;;;;25.56;37.15;96160.47;4995486;28;20732;-63
2023/08/20 08:11:03;;;;;;;;;;;;;;;25.57;38.07;96165.66;5001778;28;20012;-64
2023/08/20 08:13:29;;;;;;;;;;;;;;;25.75;36.47;96160.00;5002051;28;20222;-64
2023/08/20 08:15:54;;;;;;;;;;;;;;;25.68;37.50;96166.53;5002385;28;20394;-62
2023/08/20 08:18:19;;;;;;;;;;;;;;;25.91;37.08;96169.09;4997616;28;19984;-62
2023/08/20 08:20:45;;;;;;;;;;;;;;;25.92;36.96;96170.72;4974811;28;19985;-64
2023/08/20 08:23:10;;;;;;;;;;;;;;;26.12;37.83;96167.31;4978584;28;19926;-66
2023/08/20 08:25:35;;;;;;;;;;;;;;;25.93;36.34;96173.19;4978015;28;19918;-64
2023/08/20 08:28:00;;;;;;;;;;;;;;;26.07;36.60;96170.03;4978189;28;19925;-65
2023/08/20 08:30:26;;;;;;;;;;;;;;;25.99;35.10;96180.34;4978453;28;19948;-65
2023/08/20 08:32:51;;;;;;;;;;;;;;;26.26;34.86;96181.28;4997252;28;19921;-65
2023/08/20 08:35:16;;;;;;;;;;;;;;;26.28;36.80;96189.22;5006952;28;20393;-65
2023/08/20 08:37:42;;;;;;;;;;;;;;;26.50;35.00;96189.03;5001490;28;20054;-66
2023/08/20 08:40:08;;;;;;;;;;;;;;;26.52;35.52;96186.84;5010416;28;19932;-66
2023/08/20 08:42:33;;;;;;;;;;;;;;;26.75;34.91;96188.31;4999289;28;19990;-66
2023/08/20 08:45:01;;;;;;;;;;;;;;;26.95;35.57;96183.97;4996802;28;20700;-64
2023/08/20 08:47:27;;;;;;;;;;;;;;;26.92;34.30;96189.16;5010079;28;19928;-65
2023/08/20 08:49:53;;;;;;;;;;;;;;;27.16;34.68;96189.50;4995344;28;20011;-64
2023/08/20 08:52:19;;;;;;;;;;;;;;;27.30;33.45;96189.78;4985348;28;20012;-66
2023/08/20 08:54:44;;;;;;;;;;;;;;;27.35;34.36;96191.66;4982676;28;19933;-66
2023/08/20 08:57:10;;;;;;;;;;;;;;;24.99;37.15;96192.66;4991281;28;19968;-65
2023/08/20 08:59:35;;;;;;;;;;;;;;;26.43;34.83;96192.00;4984088;28;20007;-66
2023/08/20 09:02:00;;;;;;;;;;;;;;;26.78;34.90;96189.66;4985431;28;19968;-65
2023/08/20 09:04:26;;;;;;;;;;;;;;;27.22;34.63;96193.06;4989897;28;19997;-65
2023/08/20 09:06:51;;;;;;;;;;;;;;;27.41;34.40;96189.75;4984640;28;19957;-65
2023/08/20 09:09:17;;;;;;;;;;;;;;;27.66;34.35;96197.13;4990328;28;19921;-65
2023/08/20 09:11:42;;;;;;;;;;;;;;;27.70;33.34;96183.75;4984193;28;20202;-65
2023/08/20 09:14:07;;;;;;;;;;;;;;;27.66;32.74;96191.66;4990820;28;20429;-64
2023/08/20 09:16:32;;;;;;;;;;;;;;;27.23;33.78;96203.69;4975521;28;19921;-65
2023/08/20 09:19:01;;;;;;;;;;;;;;;27.57;32.84;96190.56;4972562;28;20013;-63
2023/08/20 09:21:28;;;;;;;;;;;;;;;26.94;34.01;96198.72;4975624;28;20537;-64
2023/08/20 09:23:53;;;;;;;;;;;;;;;25.39;35.47;96198.72;4988773;28;19951;-64
2023/08/20 09:26:18;;;;;;;;;;;;;;;25.64;35.14;96191.84;4999104;28;19917;-64
2023/08/20 09:28:44;;;;;;;;;;;;;;;25.15;35.70;96185.44;5000148;28;19917;-64
2023/08/20 09:31:10;;;;;;;;;;;;;;;26.53;34.97;96183.03;5002333;28;20072;-63
2023/08/20 09:33:35;;;;;;;;;;;;;;;26.88;32.75;96194.31;4982544;28;20442;-64
2023/08/20 09:36:02;;;;;;;;;;;;;;;27.01;32.82;96193.81;4980183;28;19922;-65
2023/08/20 09:38:27;;;;;;;;;;;;;;;27.26;33.05;96196.88;4975676;28;19925;-65
2023/08/20 09:40:55;;;;;;;;;;;;;;;27.59;32.80;96197.41;4996014;28;19991;-65
2023/08/20 09:43:21;;;;;;;;;;;;;;;27.85;32.87;96188.38;4996123;28;20038;-64
2023/08/20 09:45:46;;;;;;;;;;;;;;;28.07;31.95;96196.22;4996238;28;19917;-63
2023/08/20 09:48:12;;;;;;;;;;;;;;;28.32;32.90;96196.47;4993529;28;20375;-64
2023/08/20 09:50:37;;;;;;;;;;;;;;;28.08;31.32;96192.41;4995349;28;20198;-64
2023/08/20 09:53:17;;;;;;;;;;;;;;;28.51;31.45;96194.72;4995742;28;19921;-64
2023/08/20 09:55:42;;;;;;;;;;;;;;;28.47;31.51;96193.66;4995807;28;20398;-64
2023/08/20 09:58:07;;;;;;;;;;;;;;;27.56;31.67;96202.59;4993913;28;19918;-65
2023/08/20 10:00:33;;;;;;;;;;;;;;;28.85;28.91;96189.66;4992429;28;19926;-65
2023/08/20 10:02:58;;;;;;;;;;;;;;;29.02;29.14;96187.34;4991417;28;20382;-63
2023/08/20 10:05:23;;;;;;;;;;;;;;;26.34;33.81;96193.63;4987112;28;20346;-64
2023/08/20 10:07:49;;;;;;;;;;;;;;;27.47;32.27;96191.41;4986570;28;20505;-65
2023/08/20 10:10:14;;;;;;;;;;;;;;;28.27;31.89;96195.38;4984446;28;20454;-65
2023/08/20 10:12:39;;;;;;;;;;;;;;;28.31;31.00;96194.81;4990373;28;20381;-64
2023/08/20 10:15:05;;;;;;;;;;;;;;;28.64;30.64;96198.78;4985336;28;19932;-65
2023/08/20 10:17:30;;;;;;;;;;;;;;;29.22;30.06;96184.78;4988185;28;20130;-64
2023/08/20 10:19:57;;;;;;;;;;;;;;;29.15;30.46;96179.56;4981364;28;19940;-65
2023/08/20 10:22:22;;;;;;;;;;;;;;;29.37;29.26;96181.88;4987376;28;19929;-64
2023/08/20 10:24:49;;;;;;;;;;;;;;;29.35;30.51;96191.50;4974335;28;19949;-64
2023/08/20 10:27:23;;;;;;;;;;;;;;;29.22;29.78;96187.50;4971543;28;19926;-64
2023/08/20 10:29:48;;;;;;;;;;;;;;;28.61;30.46;96188.38;4974621;28;19989;-64
2023/08/20 10:32:13;;;;;;;;;;;;;;;27.46;32.90;96189.78;4994117;28;19925;-64
2023/08/20 10:34:39;;;;;;;;;;;;;;;29.14;29.68;96183.41;4993748;28;20205;-63
2023/08/20 10:37:08;;;;;;;;;;;;;;;28.83;31.76;96186.38;4991060;28;19944;-64
2023/08/20 10:39:34;;;;;;;;;;;;;;;29.28;30.35;96189.09;4991226;28;20441;-64
2023/08/20 10:42:10;;;;;;;;;;;;;;;29.59;29.78;96190.75;4996953;28;19933;-63
2023/08/20 10:44:54;;;;;;;;;;;;;;;28.61;31.23;96182.06;4995754;28;20222;-63
2023/08/20 10:47:19;;;;;;;;;;;;;;;28.03;32.61;96186.94;4982116;28;20426;-64
2023/08/20 10:49:45;;;;;;;;;;;;;;;29.30;30.18;96189.63;4969920;28;19924;-64
2023/08/20 10:52:10;;;;;;;;;;;;;;;28.92;31.28;96187.41;4975411;28;20542;-64
2023/08/20 10:54:35;;;;;;;;;;;;;;;29.40;30.21;96184.03;4975916;28;19991;-64
2023/08/20 10:57:00;;;;;;;;;;;;;;;29.63;30.35;96191.81;4994895;28;20218;-65
2023/08/20 10:59:26;;;;;;;;;;;;;;;29.90;29.58;96188.53;4994105;28;19930;-64
2023/08/20 11:01:52;;;;;;;;;;;;;;;29.31;30.06;96188.53;4991299;28;19921;-63
2023/08/20 11:04:18;;;;;;;;;;;;;;;30.00;28.78;96186.78;4973661;28;20448;-64
2023/08/20 11:06:44;;;;;;;;;;;;;;;30.08;29.84;96197.94;4980091;28;19929;-64
2023/08/20 11:09:10;;;;;;;;;;;;;;;29.07;31.35;96188.41;4994945;28;19925;-65
2023/08/20 11:11:37;;;;;;;;;;;;;;;29.43;29.93;96196.34;4977770;28;20154;-65
2023/08/20 11:14:07;;;;;;;;;;;;;;;30.41;28.19;96186.34;4973195;28;19969;-64
2023/08/20 11:16:32;;;;;;;;;;;;;;;30.43;28.09;96194.28;4974835;28;20275;-64
2023/08/20 11:18:57;;;;;;;;;;;;;;;28.18;31.92;96197.06;4977547;28;20121;-64
2023/08/20 11:21:23;;;;;;;;;;;;;;;28.66;30.58;96191.09;4997320;28;20386;-64
2023/08/20 11:23:48;;;;;;;;;;;;;;;28.67;31.45;96189.19;5000434;28;20350;-64
2023/08/20 11:26:13;;;;;;;;;;;;;;;29.83;29.43;96187.28;5002682;28;20394;-64
2023/08/20 11:28:38;;;;;;;;;;;;;;;30.29;29.01;96189.53;4995936;28;20211;-64
2023/08/20 11:31:03;;;;;;;;;;;;;;;30.59;27.75;96192.97;4994960;28;19925;-64
2023/08/20 11:33:29;;;;;;;;;;;;;;;30.05;26.94;96193.03;5003777;28;20015;-66
2023/08/20 11:35:54;;;;;;;;;;;;;;;30.07;27.48;96188.09;5000013;28;19925;-65
2023/08/20 11:38:20;;;;;;;;;;;;;;;30.33;26.90;96190.56;4992285;28;20286;-65
2023/08/20 11:40:45;;;;;;;;;;;;;;;29.77;27.88;96190.03;5001161;28;19930;-65
2023/08/20 11:43:11;;;;;;;;;;;;;;;27.93;30.34;96189.72;5003998;28;20020;-65
2023/08/20 11:45:46;;;;;;;;;;;;;;;29.47;29.12;96191.97;4992721;28;19951;-66
2023/08/20 11:48:12;;;;;;;;;;;;;;;29.43;29.08;96186.22;5008626;28;19921;-65
2023/08/20 11:50:37;;;;;;;;;;;;;;;29.65;28.63;96193.16;4999765;28;20424;-65
2023/08/20 11:53:03;;;;;;;;;;;;;;;29.62;29.05;96190.16;4999034;28;19926;-66
2023/08/20 11:55:29;;;;;;;;;;;;;;;29.81;28.14;96191.09;4989017;28;20120;-65
2023/08/20 11:57:54;;;;;;;;;;;;;;;30.22;28.03;96186.31;4996078;28;19917;-65
2023/08/20 12:00:29;;;;;;;;;;;;;;;30.73;27.56;96184.03;4994595;28;20346;-65
2023/08/20 12:02:55;;;;;;;;;;;;;;;30.04;27.78;96188.66;5002013;28;19922;-65
2023/08/20 12:05:20;;;;;;;;;;;;;;;30.91;27.67;96192.56;5005787;28;19935;-65
2023/08/20 12:07:59;;;;;;;;;;;;;;;30.96;26.35;96184.25;5012222;28;20373;-65
2023/08/20 12:10:24;;;;;;;;;;;;;;;31.35;24.98;96179.53;5000503;28;19931;-65
2023/08/20 12:12:50;;;;;;;;;;;;;;;31.03;26.40;96184.66;5014777;28;20317;-66
2023/08/20 12:15:15;;;;;;;;;;;;;;;30.71;25.59;96178.84;5001232;28;19926;-65
2023/08/20 12:17:40;;;;;;;;;;;;;;;29.76;28.29;96182.09;5004875;28;19918;-65
2023/08/20 12:20:12;;;;;;;;;;;;;;;29.51;27.25;96182.06;5001617;28;20418;-65
2023/08/20 12:22:38;;;;;;;;;;;;;;;29.59;27.90;96177.03;5004557;28;19949;-65
2023/08/20 12:25:04;;;;;;;;;;;;;;;29.92;27.27;96180.03;5003315;28;19972;-66
2023/08/20 12:27:29;;;;;;;;;;;;;;;30.20;26.65;96181.09;5007233;28;20372;-65
2023/08/20 12:29:54;;;;;;;;;;;;;;;30.31;27.33;96179.06;5002252;28;21285;-65
2023/08/20 12:32:20;;;;;;;;;;;;;;;29.88;27.46;96178.97;5008553;28;19925;-66
2023/08/20 12:34:45;;;;;;;;;;;;;;;29.29;27.13;96177.84;5009224;28;20589;-65
2023/08/20 12:37:10;;;;;;;;;;;;;;;29.48;27.00;96177.13;5016062;28;20202;-65
2023/08/20 12:39:35;;;;;;;;;;;;;;;27.77;30.57;96176.09;5006574;28;19980;-65